Airfield :
LOGIN :

Register | Disclaimer

   EN    FR    IT 

 










Legend :    VFR   Marginal VFR   IFR   Intensive IFR   Very Intensive IFR
Visi :
Ceiling :
>= 8 km
>= 3000ft
5 to 8 km
1000 to 3000 ft
1500m to 5 km
500 to 1000 ft
800 to 1500m
200 to 500 ft
< 800m
< 200 ft
Symbols :   Thunderstorms  Fog  Heavy snow  Heavy precipitations  Wind > 20 kt
SIGMETs :     Misc.  Thunderstorms  Icing  Turbulence  Mountain Waves  Volcanic Ashes







- Airport Elevation : 699 ft
- IATA code : PAD


EDLP - Paderborn Lippstadt

CURRENT METAR :
  • 240920Z 26005KT 210V320 9999 SCT031 BKN075 15/09 Q1024

EXPIRED METARs :
  • 240850Z 27004KT 210V340 9999 SCT032 BKN075 13/07 Q1024
  • 240820Z 27004KT 190V320 9999 FEW035 BKN075 13/07 Q1024
  • 240750Z 29005KT 250V320 9999 FEW022 13/07 Q1024
  • 240720Z 31006KT 240V360 9999 FEW022 SCT047 13/07 Q1023
  • 240650Z 30006KT 260V350 9999 BKN047 12/07 Q1023

TAF TAF EDLP
Valid from the 24 at 06:00 until the 25 at 06:00 UTC


240500Z 2406/2506 28007KT 9999 SCT045
BECMG 2416/2419 VRB03KT
TEMPO 2503/2506 BKN008
PROB30
TEMPO 2504/2506 3000 BR BKN003
No reported NOTAMs for that airfield.



MET'MAP, your aeronautical weather chart ! - Copyright ORBIFLY December 2007 - Disclaimer

ORBIFLY MET'MAP TEAM :

Programming & Development : Alexandra Zaïnal
Concept & Development : Baudouin d'Aumeries
Co-Development & Prog : Marc-Olivier Méhu
Technical & hardware support : Manuel Goepfert

Contact : metmap@orbifly.com




SOURCES & CREDITS :

   NOAA